Arcata, California
Current Conditions -  °F | °C
As of 4:42 PM on Saturday 25 Oct 2014 (Local Time) from KACV Reporting Station
Light Rain Light Rain  
Wind Chill: 14°   Ceiling: 2900
Heat Index: 14°   Visibility: 3mi
Dew Point: 13°   Wind: 9mph
Humidity: 90%   Direction: 220°SW
Pressure: 30"   Gusts: NA
Location:  40.87°N, 124.08°W
Report Text: KACV 252342Z AUTO 22008KT 3SM -RA BR FEW023 BKN029 OVC043 14/13 A3000 RMK AO2 P0004 T01440128
Loading
Personal Weather Stations






























Interactive Weather Map
Tropical Storm Tracking
New forecast layout! Learn more

10-Day Weather Forecast

Advertisements
Track Severe Weather on mobile